Clermont, Iowa
Current Conditions -  °F | °C
As of 10:15 PM on Saturday 25 Oct 2014 (Local Time) from KDEH Reporting Station
Clear Clear  
Wind Chill: 50°   Ceiling: Unl
Heat Index: 50°   Visibility: 10mi
Dew Point: 30°   Wind: 5mph
Humidity: 47%   Direction: 290°WNW
Pressure: 30.04"   Gusts: NA
Location:  43°N, 91.65°W
Report Text: KDEH 260315Z AUTO 29004KT 10SM CLR 10/M01 A3004 RMK AO2
Loading
Personal Weather Stations






























Interactive Weather Map
Tropical Storm Tracking
New forecast layout! Learn more

10-Day Weather Forecast

Advertisements
Track Severe Weather on mobile